Flight Track Log - Related Links

Times and Time Zones

All times are in EDT time to prevent confusion due to time zone crossing. See the EJA922 flight status page for this flight to view local times or setup timezone preferences in your user account.

Time Position Orientation Groundspeed Altitude Reporting Facility
EDT Latitude Longitude Course Direction KTS MPH feet Rate Location/Type
Thu 12:59:53 PM 48.3283 -114.2339 116° Southeast 204 235 4,300  Level Salt Lake Center
Thu 01:00:55 PM 48.3100 -114.1528 109° East 225 259 8,200 3,484 Climbing Salt Lake Center
Thu 01:01:57 PM 48.2881 -114.0442 107° East 253 291 11,500 2,710 Climbing Salt Lake Center
Thu 01:02:00 PM 48.0348 -113.3216 114° Southeast  Level FlightAware Approximate
Thu 01:02:59 PM 48.2450 -113.9122 116° Southeast 315 362 13,800  Level Salt Lake Center
Thu 01:03:00 PM 47.9795 -113.1375 115° Southeast  Level FlightAware Approximate
Thu 01:04:00 PM 47.9231 -112.9542 115° Southeast  Level FlightAware Approximate
Thu 01:04:01 PM 48.1994 -113.7636 115° Southeast 375 432 15,900  Level Salt Lake Center
Thu 01:05:00 PM 47.8635 -112.7736 116° Southeast  Level FlightAware Approximate
Thu 01:05:03 PM 48.1522 -113.6089 115° Southeast 402 463 17,900  Level Salt Lake Center
Thu 01:06:05 PM 48.1003 -113.4153 112° Southeast 416 479 20,300 1,887 Climbing Salt Lake Center
Thu 01:07:07 PM 48.0825 -113.2383 98° East 428 493 21,800 1,597 Climbing Salt Lake Center
Thu 01:08:09 PM 48.0622 -113.0569 99° East 441 507 23,600 1,548 Climbing Salt Lake Center
Thu 01:09:11 PM 48.0417 -112.8756 100° East 446 513 25,000 1,403 Climbing Salt Lake Center
Thu 01:10:13 PM 48.0203 -112.6867 100° East 459 528 26,500 1,355 Climbing Salt Lake Center
Thu 01:11:15 PM 47.9928 -112.4611 100° East 471 542 27,800 1,306 Climbing Salt Lake Center
Thu 01:12:17 PM 47.9697 -112.2628 100° East 482 555 29,200 1,306 Climbing Salt Lake Center
Thu 01:13:19 PM 47.9453 -112.0622 100° East 488 562 30,500 1,403 Climbing Salt Lake Center
Thu 01:14:21 PM 47.9208 -111.8597 100° East 495 570 32,100 1,597 Climbing Salt Lake Center
Thu 01:15:23 PM 47.8950 -111.6561 101° East 496 571 33,800 1,935 Climbing Salt Lake Center
Thu 01:16:25 PM 47.8706 -111.4553 100° East 493 567 36,100 2,032 Climbing Salt Lake Center
Thu 01:17:27 PM 47.8464 -111.2564 100° East 487 560 38,000 1,694 Climbing Salt Lake Center
Thu 01:18:29 PM 47.8189 -111.0533 101° East 492 566 39,600 1,403 Climbing Salt Lake Center
Thu 01:19:31 PM 47.7922 -110.8506 101° East 495 570 40,900 677 Climbing Salt Lake Center
Thu 01:20:33 PM 47.7594 -110.6000 101° East 511 588 41,000 49 Climbing Salt Lake Center
Thu 01:21:34 PM 47.7281 -110.3800 102° East 534 615 41,000  Level Salt Lake Center
Thu 01:22:36 PM 47.6975 -110.1569 101° East 548 631 41,000  Level Salt Lake Center
Thu 01:23:38 PM 47.6653 -109.9317 102° East 556 640 41,000  Level Salt Lake Center
Thu 01:24:40 PM 47.6364 -109.7083 101° East 555 639 41,000  Level Salt Lake Center
Thu 01:25:42 PM 47.6050 -109.4828 102° East 560 644 41,000  Level Salt Lake Center
Thu 01:26:44 PM 47.5647 -109.2144 102° East 558 642 41,000  Level Salt Lake Center
Thu 01:27:46 PM 47.5311 -108.9922 103° East 556 640 41,000  Level Salt Lake Center
Thu 01:28:48 PM 47.4975 -108.7697 103° East 555 639 41,000  Level Salt Lake Center
Thu 01:29:50 PM 47.4636 -108.5472 103° East 557 641 41,000  Level Salt Lake Center
Thu 01:30:52 PM 47.4292 -108.3256 103° East 555 639 41,000  Level Salt Lake Center
Thu 01:31:54 PM 47.3869 -108.0639 103° East 555 639 41,000  Level Salt Lake Center
Thu 01:32:56 PM 47.3517 -107.8414 103° East 557 641 41,000  Level Salt Lake Center
Thu 01:33:58 PM 47.3147 -107.6192 104° East 558 642 41,000  Level Salt Lake Center
Thu 01:35:00 PM 47.2783 -107.3961 103° East 559 643 41,000  Level Salt Lake Center
Thu 01:36:02 PM 47.2414 -107.1750 104° East 559 643 41,000  Level Salt Lake Center
Thu 01:37:04 PM 47.2033 -106.9517 104° East 561 646 41,000  Level Salt Lake Center
Thu 01:38:06 PM 47.1572 -106.6811 104° East 565 650 41,000  Level Salt Lake Center
Thu 01:39:08 PM 47.1189 -106.4625 104° East 562 647 41,000  Level Salt Lake Center
Thu 01:40:10 PM 47.0806 -106.2478 105° East 563 648 41,000  Level Salt Lake Center
Thu 01:41:12 PM 47.0414 -106.0283 105° East 560 644 41,000  Level Salt Lake Center
Thu 01:42:14 PM 47.0017 -105.8075 105° East 562 647 41,000  Level Salt Lake Center
Thu 01:43:16 PM 46.9611 -105.5872 105° East 563 648 41,000  Level Salt Lake Center
Thu 01:44:18 PM 46.9111 -105.3219 105° East 565 650 41,000  Level Salt Lake Center
Thu 01:45:20 PM 46.8700 -105.1019 105° East 565 650 41,000  Level Salt Lake Center
Thu 01:46:22 PM 46.8281 -104.8819 105° East 566 651 41,000  Level Salt Lake Center
Thu 01:47:24 PM 46.7858 -104.6639 106° East 563 648 41,000  Level Salt Lake Center
Thu 01:48:27 PM 46.7442 -104.4464 106° East 562 647 41,000  Level Salt Lake Center
Thu 01:49:29 PM 46.6928 -104.1856 106° East 562 647 41,000  Level Salt Lake Center
Thu 01:50:31 PM 46.6497 -103.9683 106° East 563 648 41,000  Level Salt Lake Center
Thu 01:51:33 PM 46.6067 -103.7489 106° East 565 650 41,000  Level Salt Lake Center
Thu 01:52:35 PM 46.5631 -103.5303 106° East 567 652 41,000  Level Salt Lake Center
Thu 01:53:37 PM 46.5186 -103.3119 106° East 567 652 41,000  Level Salt Lake Center
Thu 01:54:39 PM 46.4733 -103.0942 107° East 567 652 41,000  Level Salt Lake Center
Thu 01:55:41 PM 46.4192 -102.8350 107° East 566 651 41,000  Level Salt Lake Center
Thu 01:56:43 PM 46.3725 -102.6172 107° East 566 651 41,000  Level Salt Lake Center
Thu 01:57:45 PM 46.3272 -102.4014 107° East 566 651 41,000  Level Salt Lake Center
Thu 01:58:47 PM 46.2819 -102.1839 107° East 566 651 41,000  Level Salt Lake Center
Thu 01:59:49 PM 46.2339 -101.9686 108° East 566 651 41,000  Level Salt Lake Center
Thu 02:00:51 PM 46.1767 -101.7119 108° East 564 649 41,000  Level Salt Lake Center
Thu 02:02:18 PM 46.1072 -101.4178 109° East 561 646 41,000  Level Minneapolis Center
Thu 02:03:20 PM 46.0578 -101.2017 108° East 564 649 41,000  Level Minneapolis Center
Thu 02:04:22 PM 46.0081 -100.9867 108° East 565 650 41,000  Level Minneapolis Center
Thu 02:05:24 PM 45.9594 -100.7725 108° East 565 650 41,000  Level Minneapolis Center
Thu 02:06:26 PM 45.9089 -100.5575 109° East 566 651 41,000  Level Minneapolis Center
Thu 02:07:28 PM 45.8483 -100.3014 109° East 565 650 41,000  Level Minneapolis Center
Thu 02:08:30 PM 45.7978 -100.0847 108° East 567 652 41,000  Level Minneapolis Center
Thu 02:09:32 PM 45.7461 -99.8703 109° East 567 652 41,000  Level Minneapolis Center
Thu 02:10:34 PM 45.6936 -99.6569 109° East 566 651 41,000  Level Minneapolis Center
Thu 02:11:37 PM 45.6411 -99.4417 109° East 568 654 41,000  Level Minneapolis Center
Thu 02:12:39 PM 45.5872 -99.2300 110° East 567 652 41,000  Level Minneapolis Center
Thu 02:13:41 PM 45.5336 -99.0156 110° East 567 652 41,000  Level Minneapolis Center
Thu 02:14:43 PM 45.4689 -98.7603 110° East 569 655 41,000  Level Minneapolis Center
Thu 02:15:45 PM 45.4150 -98.5497 110° East 566 651 41,000  Level Minneapolis Center
Thu 02:16:47 PM 45.3597 -98.3392 110° East 566 651 41,000  Level Minneapolis Center
Thu 02:17:49 PM 45.3053 -98.1292 110° East 565 650 41,000  Level Minneapolis Center
Thu 02:18:51 PM 45.2531 -97.9339 111° Southeast 565 650 41,000  Level Minneapolis Center
Thu 02:19:53 PM 45.1861 -97.6836 111° Southeast 566 651 41,000  Level Minneapolis Center
Thu 02:20:56 PM 45.1314 -97.4747 110° East 566 651 41,000  Level Minneapolis Center
Thu 02:21:58 PM 45.0742 -97.2675 111° Southeast 566 651 41,000  Level Minneapolis Center
Thu 02:23:00 PM 45.0175 -97.0600 111° Southeast 567 652 41,000 -194 Level Minneapolis Center
Thu 02:24:02 PM 44.9614 -96.8528 111° Southeast 565 650 40,600 -823 Descending Minneapolis Center
Thu 02:25:04 PM 44.9036 -96.6489 112° Southeast 559 643 39,300 -1,500 Descending Minneapolis Center
Thu 02:26:06 PM 44.8369 -96.4061 111° Southeast 553 636 37,500 -1,839 Descending Minneapolis Center
Thu 02:27:08 PM 44.7778 -96.2011 112° Southeast 561 646 35,500 -1,935 Descending Minneapolis Center
Thu 02:28:10 PM 44.7206 -95.9967 111° Southeast 560 644 33,500 -2,081 Descending Minneapolis Center
Thu 02:29:12 PM 44.6617 -95.7911 112° Southeast 563 648 31,200 -2,371 Descending Minneapolis Center
Thu 02:30:14 PM 44.6008 -95.5839 112° Southeast 569 655 28,600 -2,468 Descending Minneapolis Center
Thu 02:31:16 PM 44.5408 -95.3789 112° Southeast 567 652 26,100 -2,400 Descending Minneapolis Center
Thu 02:32:19 PM 44.4858 -95.1808 111° Southeast 549 632 23,600 -2,496 Descending Minneapolis Center
Thu 02:33:21 PM 44.5069 -94.9525 83° East 496 571 20,900 -2,371 Descending Minneapolis Center
Thu 02:34:23 PM 44.5497 -94.7803 71° East 474 545 18,700 -1,935 Descending Minneapolis Center
Thu 02:35:25 PM 44.5844 -94.6294 72° East 463 533 16,900 -2,032 Descending Minneapolis Center
Thu 02:36:27 PM 44.6314 -94.4283 72° East 452 520 14,500 -2,129 Descending Minneapolis Center
Thu 02:37:29 PM 44.6683 -94.2669 72° East 438 504 12,500 -1,694 Descending Minneapolis Center
Thu 02:38:31 PM 44.7031 -94.1156 72° East 410 472 11,000 -823 Descending Minneapolis Center
Thu 02:39:33 PM 44.7331 -93.9797 73° East 354 407 10,800 -677 Descending Minneapolis Center
Thu 02:40:35 PM 44.7639 -93.8733 68° East 290 334 9,600 -1,306 Descending Minneapolis Center
Thu 02:41:37 PM 44.8189 -93.7972 44° Northeast 275 316 8,100 -1,248 Descending Minneapolis Center
Thu 02:42:40 PM 44.8878 -93.7494 26° Northeast 226 260 7,000 -528 Descending Minneapolis Center
Thu 02:43:42 PM 44.9489 -93.7281 14° North 227 261 7,000 -145 Level Minneapolis Center
Thu 02:44:44 PM 44.9883 -93.6814 40° Northeast 219 252 6,700 -387 Descending Minneapolis Center
Thu 02:45:46 PM 44.9844 -93.5972 94° East 215 247 6,200 -629 Descending Minneapolis Center
Thu 02:46:48 PM 44.9756 -93.5164 99° East 210 242 5,400 -581 Descending Minneapolis Center
Thu 02:47:50 PM 44.9714 -93.4381 94° East 199 229 5,000 -581 Descending Minneapolis Center
Thu 02:48:52 PM 44.9492 -93.3806 119° Southeast 143 165 4,200 -968 Descending Minneapolis Center
Thu 02:49:54 PM 44.9297 -93.3336 120° Southeast 139 160 3,000 -1,113 Descending Minneapolis Center
Thu 02:50:56 PM 44.9114 -93.2881 120° Southeast 135 155 1,900 -919 Descending Minneapolis Center
Thu 02:51:58 PM 44.8911 -93.2425 122° Southeast 137 158 1,100 -774 Descending Minneapolis Center
Thu 02:53:00 PM 44.8820 -93.2218 90° East  Level Estimated
Thu 03:00:00 PM 44.8820 -93.2218 90° East  Level Estimated

Login

Don't have an account? Register now (free) for customized features, flight alerts, and more!